Latest Weather Observations for Tindal

IDD60801

Issued at 1:31 pm CST Wednesday 22 February 2017 (issued every 30 minutes, with the page automatically refreshed every 10 minutes)

About weather observations | Map of weather stations | Latest weather observations for NT | Other Formats
Station Details ID: 014932 Name: TINDAL RAAF Lat: -14.52 Lon: 132.38 Height: 133.6 m
Data from the previous 72 hours. | See also: Recent months at Tindal
Date/Time
CST
Temp
°C
App
Temp
°C
Dew
Point
°C
Rel
Hum
%
Delta-T
°C
Wind Press
QNH
hPa
Press
MSL
hPa
Rain since
9am
mm
Dir  Spd
km/h
Gust
km/h
Spd
kts
Gust
kts
22/01:00pm 34.3 33.0 14.7 30 12.2 SW 15 26 8 14 1009.9 1008.9 0.0
22/12:30pm 33.9 32.6 14.9 32 11.8 SW 15 22 8 12 1010.4 1009.4 0.0
22/12:00pm 33.5 32.8 15.5 34 11.3 WSW 13 19 7 10 1010.9 1009.9 0.0
22/11:30am 32.9 33.2 17.1 39 10.1 W 11 19 6 10 1011.3 1010.3 0.0
22/11:00am 32.1 32.7 17.6 42 9.3 WSW 11 17 6 9 1011.5 1010.5 0.0
22/10:30am 31.0 31.2 17.7 45 8.5 SW 13 19 7 10 1011.8 1010.8 0.0
22/10:00am 29.6 30.1 17.4 47 7.8 W 11 17 6 9 1012.0 1011.0 0.0
22/09:30am 28.4 30.0 19.1 57 6.0 W 9 13 5 7 1012.2 1011.2 0.0
22/09:00am 26.8 29.1 19.9 66 4.5 W 7 11 4 6 1012.1 1011.1 0.0
22/08:30am 25.1 26.8 20.1 74 3.3 NW 11 15 6 8 1011.9 1010.9 0.0
22/08:00am 23.7 26.7 20.8 84 1.9 NW 6 11 3 6 1011.6 1010.6 0.0
22/07:30am 22.0 25.9 20.3 90 1.1 CALM 0 0 0 0 1011.2 1010.2 0.0
22/07:00am 20.9 24.3 19.4 91 1.0 CALM 0 0 0 0 1010.8 1009.8 0.0
22/06:30am 20.6 23.5 19.1 91 1.0 N 2 6 1 3 1010.5 1009.5 0.0
22/06:00am 20.3 23.0 18.6 90 1.1 E 2 9 1 5 1010.2 1009.2 0.0
22/05:30am 20.8 24.2 19.3 91 1.0 CALM 0 0 0 0 1010.1 1009.1 0.0
22/05:00am 20.8 24.3 19.5 92 0.8 CALM 0 0 0 0 1009.9 1008.9 0.0
22/04:30am 21.0 24.6 19.7 92 0.8 CALM 0 0 0 0 1009.4 1008.4 0.0
22/04:00am 21.5 25.2 20.0 91 1.0 CALM 0 0 0 0 1009.4 1008.4 0.0
22/03:30am 21.7 25.4 20.0 90 1.1 CALM 0 0 0 0 1009.3 1008.3 0.0
22/03:00am 21.9 24.9 20.0 89 1.2 ENE 4 7 2 4 1009.3 1008.3 0.0
22/02:30am 22.0 25.9 20.3 90 1.1 CALM 0 0 0 0 1009.4 1008.4 0.0
22/02:00am 22.4 26.3 20.3 88 1.4 CALM 0 0 0 0 1009.6 1008.6 0.0
22/01:30am 22.4 26.4 20.5 89 1.2 CALM 0 0 0 0 1009.9 1008.9 0.0
22/01:00am 22.7 26.8 20.8 89 1.2 CALM 0 0 0 0 1010.2 1009.2 0.0
22/12:30am 23.0 27.0 20.5 86 1.6 CALM 0 0 0 0 1010.4 1009.4 0.0
22/12:00am 23.1 27.2 20.8 87 1.5 CALM 0 0 0 0 1010.5 1009.5 0.0
 
Date/Time
CST
Temp
°C
App
Temp
°C
Dew
Point
°C
Rel
Hum
%
Delta-T
°C
Wind Press
QNH
hPa
Press
MSL
hPa
Rain since
9am
mm
Dir  Spd
km/h
Gust
km/h
Spd
kts
Gust
kts
21/11:30pm 23.5 27.3 20.2 82 2.1 CALM 0 0 0 0 1010.8 1009.8 0.0
21/11:00pm 23.9 27.9 20.6 82 2.2 CALM 0 0 0 0 1011.0 1010.0 0.0
21/10:30pm 24.4 29.0 21.7 85 1.8 CALM 0 0 0 0 1010.9 1009.9 0.0
21/10:00pm 25.0 29.4 21.3 80 2.5 CALM 0 0 0 0 1010.8 1009.8 0.0
21/09:30pm 25.2 29.1 21.9 82 2.2 SSW 4 6 2 3 1010.7 1009.7 0.0
21/09:00pm 25.9 29.7 20.2 71 3.7 CALM 0 0 0 0 1010.6 1009.6 0.0
21/08:30pm 26.8 31.3 21.6 73 3.5 CALM 0 0 0 0 1010.5 1009.5 0.0
21/08:00pm 27.3 31.7 21.3 69 4.0 CALM 0 0 0 0 1010.2 1009.2 0.0
21/07:30pm 28.6 32.6 20.6 62 5.3 CALM 0 0 0 0 1009.9 1008.9 0.0
21/07:00pm 30.3 32.1 18.4 49 7.7 SSE 6 7 3 4 1009.6 1008.6 0.0
21/06:30pm 31.8 32.1 16.1 38 9.9 SSE 9 13 5 7 1009.3 1008.3 0.0
21/06:00pm 32.9 31.9 13.5 30 11.8 S 11 15 6 8 1008.8 1007.8 0.0
21/05:30pm 33.3 31.9 13.4 30 12.1 SSE 13 19 7 10 1008.5 1007.5 0.0
21/05:00pm 33.7 32.0 13.7 30 12.2 S 15 22 8 12 1008.4 1007.4 0.0
21/04:30pm 33.8 32.3 14.3 31 12.0 SW 15 26 8 14 1008.3 1007.3 0.0
21/04:00pm 34.3 34.3 16.2 34 11.5 SW 11 15 6 8 1008.5 1007.5 0.0
21/03:30pm 33.6 31.5 13.6 29 12.2 S 17 26 9 14 1008.8 1007.8 0.0
21/03:00pm 33.7 31.8 14.2 30 12.0 SSW 17 30 9 16 1009.0 1008.0 0.0
21/02:30pm 33.9 32.1 14.4 31 12.1 SSW 17 28 9 15 1009.3 1008.3 0.0
21/02:00pm 33.6 32.6 16.5 36 10.9 SSW 17 26 9 14 1009.8 1008.8 0.0
21/01:30pm 33.2 31.7 15.2 33 11.2 S 17 26 9 14 1010.2 1009.2 0.0
21/01:00pm 32.9 32.6 14.5 33 11.3 SSE 9 19 5 10 1010.7 1009.7 0.0
21/12:30pm 32.4 30.1 14.1 33 11.2 SSE 19 24 10 13 1011.2 1010.2 0.0
21/12:00pm 32.1 31.3 16.0 38 10.1 S 15 22 8 12 1011.7 1010.7 0.0
21/11:30am 31.5 30.1 14.6 36 10.4 SE 15 22 8 12 1012.1 1011.1 0.0
21/11:00am 31.0 29.9 14.2 36 10.2 SSE 13 20 7 11 1012.4 1011.4 0.0
21/10:30am 30.4 29.7 15.3 40 9.3 SSE 13 20 7 11 1012.3 1011.3 0.0
21/10:00am 29.1 30.2 17.9 50 7.2 S 9 15 5 8 1012.4 1011.4 0.0
21/09:30am 28.6 30.8 18.4 54 6.6 SSW 4 11 2 6 1012.4 1011.4 0.0
21/09:00am 27.1 30.3 19.7 64 4.8 WSW 2 6 1 3 1012.1 1011.1 0.2
21/08:30am 25.8 30.1 21.2 76 3.1 CALM 0 0 0 0 1011.8 1010.8 0.2
21/08:00am 24.4 28.5 20.7 80 2.4 CALM 0 0 0 0 1011.6 1010.6 0.2
21/07:30am 22.7 26.8 20.8 89 1.2 CALM 0 0 0 0 1011.2 1010.2 0.2
21/07:00am 21.4 25.2 20.2 93 0.8 CALM 0 0 0 0 1010.8 1009.8 0.2
21/06:30am 21.5 25.2 20.0 91 1.0 CALM 0 0 0 0 1010.3 1009.3 0.2
21/06:00am 21.8 25.7 20.4 92 0.9 CALM 0 0 0 0 1010.0 1009.0 0.2
21/05:30am 22.1 26.1 20.6 91 1.0 CALM 0 2 0 1 1009.9 1008.9 0.2
21/05:00am 22.1 26.0 20.4 90 1.1 CALM 0 0 0 0 1009.5 1008.5 0.2
21/04:30am 22.2 25.9 19.9 87 1.5 CALM 0 0 0 0 1009.4 1008.4 0.2
21/04:00am 22.2 25.3 20.3 89 1.2 SE 4 6 2 3 1009.3 1008.3 0.2
21/03:30am 22.4 25.0 20.1 87 1.5 SSE 6 7 3 4 1009.1 1008.1 0.2
21/03:00am 22.6 25.1 19.8 84 1.8 SE 6 7 3 4 1009.4 1008.4 0.2
21/02:30am 22.9 25.3 19.7 82 2.1 E 6 7 3 4 1009.6 1008.6 0.2
21/02:00am 22.7 25.1 20.0 85 1.7 SE 7 9 4 5 1009.7 1008.7 0.2
21/01:30am 23.0 24.8 19.6 81 2.2 SE 9 11 5 6 1009.9 1008.9 0.2
21/01:00am 23.2 24.5 19.4 79 2.4 SE 11 13 6 7 1010.1 1009.1 0.2
21/12:30am 23.3 26.3 21.2 88 1.4 SE 7 7 4 4 1010.3 1009.3 0.2
21/12:00am 23.6 26.5 20.7 84 1.9 SE 6 7 3 4 1010.6 1009.6 0.2
 
Date/Time
CST
Temp
°C
App
Temp
°C
Dew
Point
°C
Rel
Hum
%
Delta-T
°C
Wind Press
QNH
hPa
Press
MSL
hPa
Rain since
9am
mm
Dir  Spd
km/h
Gust
km/h
Spd
kts
Gust
kts
20/11:30pm 23.8 26.6 20.9 84 1.9 SSE 7 9 4 5 1010.7 1009.7 0.2
20/11:00pm 23.9 26.9 21.2 85 1.8 SE 7 9 4 5 1010.8 1009.8 0.2
20/10:30pm 24.2 27.1 21.1 83 2.0 SE 7 9 4 5 1010.7 1009.7 0.2
20/10:00pm 24.6 27.6 21.3 82 2.2 SSE 7 7 4 4 1010.5 1009.5 0.2
20/09:30pm 24.8 28.4 22.3 86 1.7 SE 7 7 4 4 1010.2 1009.2 0.2
20/09:00pm 25.4 29.0 22.1 82 2.2 SE 6 7 3 4 1010.0 1009.0 0.2
20/08:30pm 25.9 28.8 21.1 75 3.2 SSE 7 7 4 4 1009.7 1008.7 0.2
20/08:00pm 26.4 29.8 22.0 77 3.0 SE 7 9 4 5 1009.4 1008.4 0.2
20/07:30pm 27.3 30.1 20.9 68 4.3 SE 7 9 4 5 1009.0 1008.0 0.2
20/07:00pm 28.3 30.6 19.8 60 5.6 SE 7 9 4 5 1008.6 1007.6 0.2
20/06:30pm 29.7 31.0 18.5 51 7.3 SE 9 11 5 6 1008.1 1007.1 0.2
20/06:00pm 31.2 30.4 15.2 38 9.9 SSE 13 19 7 10 1007.5 1006.6 0.2
20/05:30pm 32.2 31.2 16.5 39 10.0 SSE 17 20 9 11 1007.2 1006.3 0.2
20/05:00pm 32.8 32.7 17.0 38 10.1 SSE 13 17 7 9 1006.8 1005.8 0.2
20/04:30pm 32.9 32.7 16.7 38 10.3 SSE 13 20 7 11 1006.7 1005.7 0.2
20/04:00pm 32.8 32.2 16.6 38 10.3 SSE 15 20 8 11 1006.9 1006.0 0.2
20/03:30pm 33.0 32.1 15.9 35 10.8 SSE 15 24 8 13 1006.9 1006.0 0.2
20/03:00pm 33.0 32.2 15.0 33 11.2 S 13 19 7 10 1007.1 1006.2 0.2
20/02:30pm 32.7 31.4 15.7 36 10.7 SSE 17 26 9 14 1007.3 1006.4 0.2
20/02:00pm 32.2 30.9 15.7 37 10.3 SE 17 22 9 12 1007.5 1006.6 0.2
20/01:30pm 32.1 30.2 15.1 35 10.6 SSE 19 28 10 15 1008.2 1007.2 0.2
20/01:00pm 31.6 29.8 15.5 37 10.0 SSE 19 26 10 14 1008.6 1007.6 0.2
20/12:30pm 31.4 30.6 18.0 44 8.7 SE 19 28 10 15 1009.3 1008.3 0.2
20/12:00pm 31.1 29.4 16.3 41 9.3 SSE 20 30 11 16 1009.5 1008.5 0.2
20/11:30am 30.8 29.6 17.1 43 8.7 SE 19 28 10 15 1009.7 1008.7 0.2
20/11:00am 29.8 27.6 16.9 45 8.2 SSE 24 37 13 20 1010.0 1009.0 0.2
20/10:30am 29.7 29.2 17.8 48 7.6 SSE 17 22 9 12 1010.3 1009.3 0.2
20/10:00am 29.0 28.6 18.1 51 7.0 S 17 24 9 13 1010.2 1009.2 0.2
20/09:30am 28.2 29.1 19.2 58 5.9 SSE 13 22 7 12 1010.0 1009.0 0.0
20/09:00am 27.0 29.3 20.6 68 4.2 S 9 15 5 8 1009.9 1008.9 1.8
20/08:30am 25.6 29.3 22.5 83 2.1 S 7 9 4 5 1009.4 1008.4 1.8
20/08:13am 24.8 29.2 23.4 92 1.0 S 6 9 3 5 1009.3 1008.3 1.8
20/08:00am 24.2 28.8 23.2 94 0.7 S 4 7 2 4 1009.3 1008.3 1.8
20/07:54am 24.0 28.9 23.1 95 0.6 SW 2 6 1 3 1009.2 1008.2 1.8
20/07:47am 23.7 27.8 23.0 96 0.5 SW 6 9 3 5 1009.1 1008.1 1.8
20/07:30am 23.6 28.4 22.9 96 0.5 W 2 7 1 4 1009.0 1008.0 1.8
20/07:00am 23.5 27.5 22.8 96 0.5 W 6 9 3 5 1008.8 1007.8 1.8
20/06:30am 23.4 27.7 22.7 96 0.5 NW 4 7 2 4 1008.7 1007.7 1.8
20/06:20am 23.4 27.4 22.7 96 0.5 NW 6 7 3 4 1008.7 1007.7 1.8
20/06:17am 23.4 27.4 22.7 96 0.5 NW 6 7 3 4 1008.6 1007.6 1.8
20/06:00am 23.3 26.6 22.6 96 0.5 NW 9 13 5 7 1008.6 1007.6 1.8
20/05:54am 23.4 26.8 22.7 96 0.5 NW 9 13 5 7 1008.6 1007.6 1.8
20/05:44am 23.5 27.3 22.8 96 0.5 NW 7 9 4 5 1008.4 1007.4 1.8
20/05:30am 23.3 26.6 22.6 96 0.5 NW 9 11 5 6 1008.3 1007.3 1.8
20/05:00am 23.4 26.7 22.6 95 0.5 NW 9 11 5 6 1007.9 1007.0 1.8
20/04:30am 23.5 27.3 22.7 95 0.5 W 7 11 4 6 1007.6 1006.7 1.8
20/04:00am 23.6 27.6 22.8 95 0.5 NW 6 9 3 5 1007.4 1006.5 1.8
20/03:30am 23.7 28.8 22.7 94 0.7 CALM 0 0 0 0 1007.4 1006.5 1.8
20/03:00am 23.8 27.6 22.8 94 0.7 WNW 7 9 4 5 1007.4 1006.5 1.8
20/02:30am 23.9 28.7 22.9 94 0.7 S 2 6 1 3 1007.9 1007.0 1.8
20/02:00am 23.9 27.8 22.9 94 0.7 SSW 7 11 4 6 1008.2 1007.2 1.8
20/01:30am 23.9 29.1 22.9 94 0.7 CALM 0 2 0 1 1008.5 1007.5 1.8
20/01:00am 24.0 29.3 23.0 94 0.7 CALM 0 0 0 0 1008.7 1007.7 1.8
20/12:30am 24.1 29.3 22.9 93 0.8 CALM 0 0 0 0 1008.9 1007.9 1.8
20/12:00am 24.1 29.3 22.9 93 0.8 CALM 0 0 0 0 1009.2 1008.2 1.8
 
Date/Time
CST
Temp
°C
App
Temp
°C
Dew
Point
°C
Rel
Hum
%
Delta-T
°C
Wind Press
QNH
hPa
Press
MSL
hPa
Rain since
9am
mm
Dir  Spd
km/h
Gust
km/h
Spd
kts
Gust
kts
19/11:30pm 24.2 29.5 23.0 93 0.8 CALM 0 0 0 0 1009.4 1008.4 1.8
19/11:00pm 24.3 28.4 22.9 92 0.9 ESE 6 9 3 5 1009.7 1008.7 1.8
19/10:30pm 24.3 29.0 22.7 91 1.1 E 2 9 1 5 1009.8 1008.8 1.8
19/10:00pm 24.5 28.3 22.8 90 1.2 E 7 11 4 6 1009.6 1008.6 1.8
19/09:30pm 24.5 27.1 22.6 89 1.3 E 13 17 7 9 1009.3 1008.3 1.8
19/09:00pm 24.5 27.6 22.8 90 1.2 E 11 17 6 9 1009.1 1008.1 1.8
19/08:30pm 24.8 26.8 23.0 90 1.2 E 17 24 9 13 1008.7 1007.7 1.8
19/08:10pm 24.7 28.6 22.9 90 1.2 E 7 13 4 7 1008.7 1007.7 1.6
19/08:00pm 24.6 26.9 22.7 89 1.3 E 15 22 8 12 1008.3 1007.3 1.6
19/07:53pm 25.1 26.8 22.4 85 1.8 ESE 17 24 9 13 1007.9 1007.0 1.2
19/07:30pm 26.6 27.7 22.4 78 2.8 E 20 30 11 16 1007.7 1006.8 0.2
19/07:00pm 27.3 28.3 22.9 77 3.0 ENE 22 30 12 16 1006.9 1006.0 0.2
19/06:30pm 30.7 34.5 22.8 62 5.4 S 7 11 4 6 1006.4 1005.4 0.2
19/06:00pm 31.3 33.9 22.6 60 6.0 SSW 13 17 7 9 1006.0 1005.0 0.2
19/05:30pm 31.2 32.6 21.9 57 6.3 S 17 22 9 12 1005.5 1004.5 0.2
19/05:00pm 31.5 31.7 21.4 55 6.8 SSW 22 30 12 16 1005.5 1004.5 0.2
19/04:30pm 31.6 32.4 21.7 55 6.7 SSW 20 28 11 15 1005.4 1004.4 0.2
19/04:00pm 31.9 33.9 22.9 59 6.2 SSW 17 20 9 11 1005.0 1004.0 0.2
19/03:30pm 32.3 33.4 22.4 56 6.8 SSW 20 30 11 16 1004.9 1003.9 0.2
19/03:00pm 32.8 34.8 22.3 54 7.2 S 15 24 8 13 1005.2 1004.2 0.2
19/02:30pm 32.6 34.4 21.1 50 7.8 SSW 13 20 7 11 1005.8 1004.8 0.2
19/02:00pm 32.1 34.4 21.3 53 7.3 SSE 11 20 6 11 1006.2 1005.2 0.2

Other Formats:

Comma delimited format used in spreadsheet applications
http://www.bom.gov.au/fwo/IDD60801/IDD60801.94131.axf

JavaScript Object Notation format (JSON) in row-major order
http://www.bom.gov.au/fwo/IDD60801/IDD60801.94131.json